Time;durP1;ratioP1;P1;durP2;ratioP2;P2;SDS_P1;SDS_P2;PMS_P1;PMS_P2;Temp;Humidity;BMP_temperature;BMP_pressure;BME280_temperature;BME280_humidity;BME280_pressure;Samples;Min_cycle;Max_cycle;Signal;HPM_P1;HPM_P2
2022/10/07 00:01:32;;;;;;;1.80;1.50;;;;;;;24.65;40.76;97776.97;5037674;28;20091;-26
2022/10/07 00:03:58;;;;;;;1.30;1.20;;;;;;;24.61;40.85;97771.63;5037858;28;20045;-27
2022/10/07 00:06:23;;;;;;;1.63;1.30;;;;;;;24.63;40.80;97768.34;5037798;28;20017;-27
2022/10/07 00:08:51;;;;;;;1.73;1.40;;;;;;;24.59;40.68;97771.38;5037539;28;20052;-26
2022/10/07 00:11:22;;;;;;;1.85;1.30;;;;;;;24.61;40.64;97770.84;5037633;28;20029;-26
2022/10/07 00:13:52;;;;;;;1.63;1.40;;;;;;;24.54;40.60;97766.50;5037491;28;20053;-27
2022/10/07 00:16:23;;;;;;;2.22;1.50;;;;;;;24.57;40.57;97760.00;5037942;28;20033;-26
2022/10/07 00:18:50;;;;;;;1.95;1.50;;;;;;;24.53;40.85;97769.75;5037762;28;20031;-27
2022/10/07 00:21:17;;;;;;;1.58;1.10;;;;;;;24.55;40.77;97762.50;5037355;28;20026;-27
2022/10/07 00:23:45;;;;;;;1.67;1.50;;;;;;;24.60;40.50;97764.53;5036004;28;20033;-26
2022/10/07 00:26:14;;;;;;;1.85;1.50;;;;;;;24.55;40.79;97768.03;5037488;28;20052;-26
2022/10/07 00:28:40;;;;;;;1.83;1.50;;;;;;;24.61;40.46;97765.31;5037514;28;20117;-27
2022/10/07 00:31:09;;;;;;;2.97;1.40;;;;;;;24.57;40.65;97756.47;5037559;28;20034;-26
2022/10/07 00:33:38;;;;;;;1.60;1.48;;;;;;;24.55;40.69;97756.94;5037364;28;20385;-27
2022/10/07 00:36:08;;;;;;;1.67;1.58;;;;;;;24.55;40.74;97747.84;5037581;28;20033;-26
2022/10/07 00:38:34;;;;;;;1.45;1.20;;;;;;;24.49;40.91;97750.56;5037367;28;20055;-25
2022/10/07 00:41:00;;;;;;;2.05;1.55;;;;;;;24.52;40.90;97743.28;5037475;28;20022;-26
2022/10/07 00:43:28;;;;;;;2.50;1.60;;;;;;;24.52;40.94;97741.28;5037626;28;20478;-25
2022/10/07 00:45:59;;;;;;;2.10;1.30;;;;;;;24.48;40.87;97746.25;5037340;28;20125;-25
2022/10/07 00:48:29;;;;;;;1.83;1.40;;;;;;;24.47;41.02;97736.44;5037561;28;20025;-25
2022/10/07 00:50:59;;;;;;;1.63;1.30;;;;;;;24.52;40.90;97732.19;5037434;28;20489;-25
2022/10/07 00:53:29;;;;;;;1.67;1.35;;;;;;;24.49;41.09;97733.91;5037434;28;20052;-25
2022/10/07 00:56:00;;;;;;;2.55;1.63;;;;;;;24.49;40.97;97730.38;5037346;28;20033;-26
2022/10/07 00:58:27;;;;;;;1.63;1.52;;;;;;;24.47;40.94;97728.13;5037437;28;20126;-25
2022/10/07 01:00:53;;;;;;;2.30;1.50;;;;;;;24.51;41.03;97722.34;5037299;28;20029;-25
2022/10/07 01:03:19;;;;;;;1.35;1.13;;;;;;;24.50;41.11;97716.03;5037468;28;20037;-25
2022/10/07 01:05:44;;;;;;;1.95;1.30;;;;;;;24.53;40.93;97711.53;5037292;28;20051;-25
2022/10/07 01:08:11;;;;;;;1.77;1.48;;;;;;;24.43;41.16;97708.16;5037224;28;20420;-25
2022/10/07 01:10:49;;;;;;;3.28;1.98;;;;;;;24.50;40.93;97701.41;5036944;28;20052;-25
2022/10/07 01:13:31;;;;;;;1.70;1.42;;;;;;;24.41;41.28;97713.41;5033664;28;20115;-25
2022/10/07 01:16:28;;;;;;;2.60;1.60;;;;;;;24.49;40.92;97697.09;5034254;28;20089;-25
2022/10/07 01:19:03;;;;;;;3.45;1.50;;;;;;;24.45;40.99;97705.66;5034275;28;20040;-25
2022/10/07 01:21:50;;;;;;;2.55;1.55;;;;;;;24.40;41.14;97698.03;5033820;28;20025;-25
2022/10/07 01:24:19;;;;;;;2.08;1.65;;;;;;;24.42;40.97;97692.00;5021744;28;20077;-25
2022/10/07 01:27:00;;;;;;;4.20;1.67;;;;;;;24.43;40.96;97687.97;5016092;28;20029;-25
2022/10/07 01:29:35;;;;;;;1.70;1.50;;;;;;;24.42;40.79;97692.75;5016176;28;20033;-25
2022/10/07 01:32:08;;;;;;;2.30;1.30;;;;;;;24.42;40.90;97686.47;5016314;28;20542;-25
2022/10/07 01:34:35;;;;;;;1.63;1.30;;;;;;;24.39;40.98;97688.19;5015979;28;20034;-25
2022/10/07 01:37:05;;;;;;;2.17;1.38;;;;;;;24.43;40.81;97688.75;5016203;28;20402;-25
2022/10/07 01:39:39;;;;;;;1.88;1.40;;;;;;;24.41;40.85;97685.69;5015713;28;20092;-25
2022/10/07 01:42:05;;;;;;;3.58;2.00;;;;;;;24.41;40.66;97682.16;5015973;28;20069;-25
2022/10/07 01:44:30;;;;;;;2.08;1.42;;;;;;;24.35;41.03;97676.56;5015648;28;20064;-25
2022/10/07 01:46:57;;;;;;;2.55;1.55;;;;;;;24.38;41.00;97675.56;5015927;28;20057;-25
2022/10/07 01:49:23;;;;;;;2.00;1.40;;;;;;;24.33;40.83;97679.84;5015917;28;20113;-25
2022/10/07 01:52:26;;;;;;;3.22;1.85;;;;;;;24.38;40.71;97680.34;5015767;28;20030;-25
2022/10/07 01:55:17;;;;;;;1.40;1.30;;;;;;;24.36;40.94;97674.56;5015264;28;20533;-25
2022/10/07 01:58:09;;;;;;;2.38;1.60;;;;;;;24.38;40.87;97675.56;5015462;28;20030;-25
2022/10/07 02:00:42;;;;;;;2.72;1.52;;;;;;;24.33;40.87;97670.75;5015818;28;20363;-25
2022/10/07 02:03:15;;;;;;;2.70;1.83;;;;;;;24.24;41.21;97668.13;5015536;28;20433;-25
2022/10/07 02:05:56;;;;;;;1.83;1.60;;;;;;;24.31;41.06;97667.69;5015543;28;20022;-25
2022/10/07 02:08:29;;;;;;;1.73;1.48;;;;;;;24.32;41.04;97666.44;5014495;28;20485;-25
2022/10/07 02:11:19;;;;;;;3.45;1.63;;;;;;;24.38;41.03;97669.25;5015310;28;20046;-25
2022/10/07 02:13:57;;;;;;;2.95;1.60;;;;;;;24.40;41.00;97669.53;5015424;28;20034;-25
2022/10/07 02:16:43;;;;;;;1.70;1.60;;;;;;;24.35;40.90;97665.47;5015406;28;20029;-25
2022/10/07 02:19:20;;;;;;;2.47;1.67;;;;;;;24.32;41.36;97666.44;5015402;28;20018;-25
2022/10/07 02:21:49;;;;;;;2.63;1.80;;;;;;;24.22;41.29;97665.06;5014039;28;20052;-25
2022/10/07 02:24:17;;;;;;;2.80;1.65;;;;;;;24.29;41.27;97661.88;5014755;28;20486;-25
2022/10/07 02:26:44;;;;;;;2.00;1.80;;;;;;;24.30;41.39;97668.94;5015046;28;20455;-25
2022/10/07 02:29:13;;;;;;;1.92;1.58;;;;;;;24.28;41.45;97665.91;5015320;28;20034;-25
2022/10/07 02:31:41;;;;;;;3.35;1.90;;;;;;;24.34;41.21;97658.41;5015094;28;20016;-25
2022/10/07 02:34:12;;;;;;;2.15;1.60;;;;;;;24.24;41.62;97651.47;5015256;28;20112;-25
2022/10/07 02:36:45;;;;;;;2.53;1.63;;;;;;;24.26;41.16;97644.19;5015266;28;20387;-25
2022/10/07 02:39:11;;;;;;;2.45;1.75;;;;;;;24.25;41.50;97642.69;5014742;28;20049;-25
2022/10/07 02:41:58;;;;;;;2.15;1.70;;;;;;;24.24;41.43;97645.94;5014851;28;20026;-25
2022/10/07 02:44:29;;;;;;;2.25;1.83;;;;;;;24.30;41.35;97647.53;5014790;28;20022;-25
2022/10/07 02:47:05;;;;;;;3.20;1.63;;;;;;;24.21;41.50;97644.91;5014715;28;20061;-25
2022/10/07 02:49:38;;;;;;;2.45;2.08;;;;;;;24.29;41.48;97642.47;5014564;28;20038;-25
2022/10/07 02:52:07;;;;;;;3.20;1.70;;;;;;;24.20;41.18;97637.06;5013500;28;20045;-25
2022/10/07 02:54:53;;;;;;;1.95;1.67;;;;;;;24.17;41.14;97636.03;5014348;28;20036;-25
2022/10/07 02:57:22;;;;;;;1.95;1.58;;;;;;;24.26;41.29;97637.91;5014652;28;20033;-25
2022/10/07 02:59:50;;;;;;;2.72;1.70;;;;;;;24.24;41.50;97640.41;5014378;28;20106;-25
2022/10/07 03:02:48;;;;;;;2.70;1.88;;;;;;;24.23;41.26;97630.59;5015107;28;20029;-25
2022/10/07 03:05:19;;;;;;;2.08;1.60;;;;;;;24.19;41.17;97630.75;5014045;28;20521;-26
2022/10/07 03:08:06;;;;;;;2.00;1.80;;;;;;;24.22;41.20;97634.56;5014289;28;20041;-25
2022/10/07 03:10:31;;;;;;;2.08;1.50;;;;;;;24.16;41.22;97630.97;5014076;28;20056;-25
2022/10/07 03:12:57;;;;;;;2.95;1.85;;;;;;;24.18;41.33;97629.22;5014325;28;20084;-25
2022/10/07 03:15:24;;;;;;;2.13;1.67;;;;;;;24.19;41.05;97630.00;5014198;28;20030;-25
2022/10/07 03:17:49;;;;;;;2.55;1.50;;;;;;;24.18;41.04;97620.91;5014047;28;20026;-25
2022/10/07 03:20:15;;;;;;;2.72;1.80;;;;;;;24.17;40.95;97624.94;5014079;28;20472;-25
2022/10/07 03:22:44;;;;;;;3.22;1.70;;;;;;;24.19;41.14;97624.47;5014001;28;20030;-25
2022/10/07 03:25:10;;;;;;;1.90;1.73;;;;;;;24.21;41.14;97622.72;5014268;28;20096;-25
2022/10/07 03:27:37;;;;;;;2.22;1.50;;;;;;;24.22;40.75;97620.72;5014207;28;20053;-25
2022/10/07 03:30:04;;;;;;;2.13;1.75;;;;;;;24.17;41.14;97615.88;5014217;28;20075;-25
2022/10/07 03:32:29;;;;;;;4.35;1.67;;;;;;;24.19;41.11;97614.13;5014072;28;20500;-25
2022/10/07 03:34:54;;;;;;;3.35;1.60;;;;;;;24.20;40.92;97620.44;5013164;28;20065;-25
2022/10/07 03:37:23;;;;;;;2.22;1.85;;;;;;;24.18;40.63;97622.94;5013909;28;20033;-25
2022/10/07 03:39:51;;;;;;;2.00;1.60;;;;;;;24.14;41.40;97617.59;5013752;28;20073;-25
2022/10/07 03:42:16;;;;;;;1.75;1.60;;;;;;;24.12;41.16;97624.88;5012529;28;20041;-25
2022/10/07 03:44:42;;;;;;;1.63;1.50;;;;;;;24.06;41.08;97621.28;5013849;28;20026;-25
2022/10/07 03:47:07;;;;;;;1.83;1.60;;;;;;;24.08;41.18;97616.03;5014026;28;20030;-25
2022/10/07 03:49:34;;;;;;;2.47;1.88;;;;;;;24.04;41.25;97615.47;5013914;28;20119;-25
2022/10/07 03:52:00;;;;;;;2.88;2.03;;;;;;;24.11;41.28;97609.50;5013985;28;20041;-25
2022/10/07 03:54:25;;;;;;;2.15;1.90;;;;;;;24.08;41.37;97619.56;5013779;28;20032;-25
2022/10/07 03:56:51;;;;;;;5.50;1.90;;;;;;;24.07;41.38;97612.50;5013627;28;20025;-25
2022/10/07 03:59:16;;;;;;;2.20;1.75;;;;;;;24.16;41.00;97608.78;5013733;28;20034;-25
2022/10/07 04:01:42;;;;;;;3.00;2.03;;;;;;;24.04;41.09;97607.16;5013701;28;20022;-25
2022/10/07 04:04:07;;;;;;;3.10;1.73;;;;;;;23.96;41.63;97610.38;5013852;28;20026;-25
2022/10/07 04:06:34;;;;;;;2.80;1.90;;;;;;;24.09;41.18;97604.47;5013901;28;20072;-25
2022/10/07 04:08:59;;;;;;;2.13;1.73;;;;;;;24.04;41.46;97604.38;5013529;28;20116;-25
2022/10/07 04:11:25;;;;;;;4.10;2.13;;;;;;;23.99;41.09;97608.63;5013447;28;20109;-25
2022/10/07 04:13:51;;;;;;;2.60;1.60;;;;;;;24.10;41.03;97616.31;5013669;28;20454;-25
2022/10/07 04:16:17;;;;;;;4.50;1.83;;;;;;;24.02;40.99;97604.09;5012355;28;20363;-25
2022/10/07 04:18:43;;;;;;;3.20;1.80;;;;;;;24.00;41.29;97608.13;5013631;28;20022;-25
2022/10/07 04:21:09;;;;;;;1.90;1.67;;;;;;;23.98;41.42;97610.63;5013592;28;20033;-25
2022/10/07 04:23:35;;;;;;;1.90;1.60;;;;;;;23.95;41.18;97608.84;5013301;28;20021;-25
2022/10/07 04:26:06;;;;;;;2.17;1.77;;;;;;;23.84;41.20;97605.97;5013402;28;20025;-25
2022/10/07 04:28:31;;;;;;;1.92;1.55;;;;;;;23.94;41.16;97606.56;5013510;28;20025;-25
2022/10/07 04:30:57;;;;;;;3.15;1.88;;;;;;;23.90;41.26;97608.78;5013209;28;20017;-25
2022/10/07 04:33:23;;;;;;;2.80;1.50;;;;;;;23.92;40.60;97607.03;5013362;28;20079;-25
2022/10/07 04:35:49;;;;;;;2.58;1.67;;;;;;;23.94;41.07;97607.31;5013304;28;20030;-25
2022/10/07 04:38:19;;;;;;;2.58;1.90;;;;;;;23.92;40.74;97601.50;5013264;28;20161;-25
2022/10/07 04:40:48;;;;;;;2.22;1.50;;;;;;;23.91;40.83;97599.97;5013383;28;20041;-25
2022/10/07 04:43:25;;;;;;;2.08;1.73;;;;;;;24.00;40.50;97602.59;5013178;28;20415;-25
2022/10/07 04:45:53;;;;;;;1.77;1.67;;;;;;;23.91;40.97;97599.97;5014140;28;20026;-25
2022/10/07 04:48:22;;;;;;;3.80;1.80;;;;;;;23.86;40.33;97602.69;5017096;28;20036;-25
2022/10/07 04:50:50;;;;;;;3.28;1.80;;;;;;;23.89;40.61;97605.25;5016901;28;20391;-25
2022/10/07 04:53:16;;;;;;;2.00;1.80;;;;;;;23.98;40.18;97605.06;5016750;28;20022;-25
2022/10/07 04:55:45;;;;;;;1.70;1.52;;;;;;;23.96;40.54;97599.28;5016785;28;20033;-25
2022/10/07 04:58:11;;;;;;;3.45;1.75;;;;;;;24.04;40.38;97596.84;5016690;28;20029;-25
2022/10/07 05:00:44;;;;;;;2.05;1.52;;;;;;;23.98;40.33;97599.53;5016680;28;20022;-25
2022/10/07 05:03:11;;;;;;;1.88;1.45;;;;;;;23.83;40.55;97598.88;5016524;28;20123;-25
2022/10/07 05:05:40;;;;;;;2.47;2.00;;;;;;;23.87;40.71;97596.66;5015354;28;20460;-25
2022/10/07 05:08:06;;;;;;;1.95;1.52;;;;;;;23.85;40.26;97596.41;5016682;28;20386;-25
2022/10/07 05:10:35;;;;;;;3.78;1.75;;;;;;;23.85;40.16;97595.63;5016577;28;20017;-25
2022/10/07 05:13:00;;;;;;;2.97;1.90;;;;;;;23.86;40.27;97592.34;5016568;28;20025;-25
2022/10/07 05:15:26;;;;;;;5.65;1.65;;;;;;;23.87;40.42;97593.13;5016494;28;20026;-25
2022/10/07 05:17:54;;;;;;;2.33;1.88;;;;;;;23.87;40.11;97582.78;5016228;28;20022;-25
2022/10/07 05:20:20;;;;;;;2.75;1.80;;;;;;;23.89;40.17;97591.38;5016398;28;20076;-25
2022/10/07 05:22:46;;;;;;;2.25;1.90;;;;;;;23.98;40.00;97588.44;5016324;28;20022;-25
2022/10/07 05:25:11;;;;;;;3.20;1.75;;;;;;;23.87;40.18;97584.81;5016249;28;20022;-25
2022/10/07 05:27:39;;;;;;;2.75;2.10;;;;;;;23.87;40.19;97585.56;5016434;28;20022;-25
2022/10/07 05:30:05;;;;;;;3.03;2.03;;;;;;;23.78;40.44;97582.97;5016391;28;20026;-25
2022/10/07 05:32:30;;;;;;;2.33;1.80;;;;;;;23.84;40.40;97585.81;5016061;28;20091;-25
2022/10/07 05:34:56;;;;;;;2.58;1.88;;;;;;;23.84;40.31;97583.03;5016015;28;20034;-25
2022/10/07 05:37:21;;;;;;;2.30;1.48;;;;;;;23.85;39.70;97592.88;5016010;28;20414;-25
2022/10/07 05:39:46;;;;;;;3.10;1.98;;;;;;;23.87;40.18;97591.09;5015899;28;20060;-25
2022/10/07 05:42:12;;;;;;;1.80;1.58;;;;;;;23.80;40.04;97588.78;5015920;28;20026;-25
2022/10/07 05:44:38;;;;;;;2.40;1.80;;;;;;;23.84;40.47;97594.13;5015837;28;20045;-25
2022/10/07 05:47:04;;;;;;;3.22;1.88;;;;;;;23.77;40.43;97592.50;5015956;28;20029;-25
2022/10/07 05:49:29;;;;;;;2.58;1.95;;;;;;;23.78;40.38;97602.34;5015562;28;20109;-25
2022/10/07 05:51:55;;;;;;;3.33;2.13;;;;;;;23.89;40.28;97602.47;5016083;28;20037;-25
2022/10/07 05:54:21;;;;;;;6.72;2.30;;;;;;;23.86;40.26;97605.47;5015887;28;20030;-25
2022/10/07 05:56:47;;;;;;;7.05;2.38;;;;;;;23.78;40.24;97607.88;5015581;28;20026;-25
2022/10/07 05:59:12;;;;;;;4.47;2.28;;;;;;;23.72;40.54;97609.84;5015083;28;20113;-25
2022/10/07 06:01:40;;;;;;;2.90;1.92;;;;;;;23.81;40.15;97595.84;5015509;28;20068;-25
2022/10/07 06:04:06;;;;;;;3.85;2.22;;;;;;;23.81;40.30;97601.38;5015541;28;20018;-25
2022/10/07 06:06:33;;;;;;;5.82;2.20;;;;;;;23.85;40.28;97598.41;5015433;28;20022;-25
2022/10/07 06:13:06;;;;;;;2.72;2.40;;;;;;;23.87;39.91;97599.41;5015584;28;20119;-25
2022/10/07 06:14:29;;;;;;;3.10;2.65;;;;;;;23.77;40.23;97606.38;5015240;28;20552;-25
2022/10/07 06:16:54;;;;;;;3.25;2.15;;;;;;;23.75;40.57;97606.09;5015483;28;20030;-25
2022/10/07 06:19:22;;;;;;;3.65;2.00;;;;;;;23.82;40.28;97597.38;5016781;28;20486;-25
2022/10/07 06:21:49;;;;;;;3.20;2.08;;;;;;;23.89;39.81;97599.69;5031447;28;20120;-25
2022/10/07 06:24:14;;;;;;;1.95;1.77;;;;;;;23.79;40.35;97608.66;5027966;28;20025;-25
2022/10/07 06:26:41;;;;;;;3.60;1.92;;;;;;;23.72;40.41;97607.06;5013179;28;20044;-25
2022/10/07 06:29:07;;;;;;;3.13;2.15;;;;;;;23.92;40.04;97612.59;5013184;28;20033;-25
2022/10/07 06:31:33;;;;;;;5.18;2.20;;;;;;;23.77;40.16;97606.38;5012753;28;20033;-25
2022/10/07 06:33:58;;;;;;;4.95;2.40;;;;;;;23.84;40.19;97605.97;5012940;28;20057;-25
2022/10/07 06:36:24;;;;;;;2.67;2.03;;;;;;;23.82;40.40;97605.69;5017397;28;20049;-25
2022/10/07 06:38:52;;;;;;;4.25;2.00;;;;;;;23.92;40.07;97609.81;5030979;28;20140;-25
2022/10/07 06:41:18;;;;;;;5.88;2.05;;;;;;;23.90;40.14;97611.53;5032459;28;20029;-25
2022/10/07 06:43:44;;;;;;;2.78;2.20;;;;;;;23.90;40.12;97608.78;5032343;28;20021;-25
2022/10/07 06:46:16;;;;;;;2.83;2.53;;;;;;;23.91;40.31;97610.28;5031506;28;20385;-25
2022/10/07 06:48:43;;;;;;;2.65;2.40;;;;;;;23.84;40.55;97624.59;5031950;28;20159;-25
2022/10/07 06:51:13;;;;;;;3.45;2.33;;;;;;;23.85;40.27;97607.47;5031639;28;20028;-25
2022/10/07 06:53:38;;;;;;;3.10;2.33;;;;;;;23.89;40.08;97610.78;5032107;28;20029;-25
2022/10/07 06:56:04;;;;;;;4.15;3.00;;;;;;;23.83;40.58;97617.53;5032369;28;20040;-25
2022/10/07 06:58:30;;;;;;;3.55;2.55;;;;;;;23.89;40.25;97616.31;5032244;28;20028;-25
2022/10/07 07:00:58;;;;;;;4.13;2.75;;;;;;;23.80;40.71;97622.03;5032281;28;20021;-25
2022/10/07 07:03:24;;;;;;;3.25;2.70;;;;;;;23.90;40.29;97617.84;5032148;28;20568;-25
2022/10/07 07:05:50;;;;;;;3.70;3.00;;;;;;;23.94;40.23;97614.88;5031771;28;20108;-25
2022/10/07 07:08:17;;;;;;;2.90;2.60;;;;;;;23.91;40.49;97611.06;5032079;28;20092;-25
2022/10/07 07:10:44;;;;;;;3.38;2.58;;;;;;;23.90;40.32;97611.53;5031298;28;20029;-25
2022/10/07 07:13:11;;;;;;;3.53;2.38;;;;;;;23.95;40.66;97608.09;5025361;28;20104;-25
2022/10/07 07:15:37;;;;;;;4.80;2.63;;;;;;;23.88;40.63;97609.25;5010951;28;20037;-25
2022/10/07 07:18:05;;;;;;;3.90;2.80;;;;;;;23.92;40.54;97607.03;5010664;28;20397;-25
2022/10/07 07:20:37;;;;;;;3.25;2.90;;;;;;;23.92;40.73;97609.81;5012213;28;20034;-25
2022/10/07 07:23:09;;;;;;;4.25;3.10;;;;;;;23.94;40.71;97612.09;5012243;28;20030;-25
2022/10/07 07:25:37;;;;;;;4.47;2.70;;;;;;;23.92;40.67;97609.81;5012213;28;20037;-25
2022/10/07 07:28:02;;;;;;;4.18;2.72;;;;;;;23.95;41.10;97613.63;5011963;28;20444;-25
2022/10/07 07:30:29;;;;;;;3.63;2.72;;;;;;;23.90;40.98;97612.31;5011811;28;20116;-25
2022/10/07 07:32:54;;;;;;;4.70;2.92;;;;;;;23.89;40.69;97616.31;5012099;28;20029;-25
2022/10/07 07:35:25;;;;;;;4.60;3.35;;;;;;;23.91;40.75;97619.38;5011684;28;20482;-25
2022/10/07 07:37:52;;;;;;;3.33;2.58;;;;;;;23.82;41.05;97622.28;5012080;28;20045;-25
2022/10/07 07:40:19;;;;;;;3.60;2.75;;;;;;;23.95;41.03;97625.47;5011386;28;20107;-26
2022/10/07 07:42:45;;;;;;;4.47;2.60;;;;;;;23.95;40.95;97616.41;5011219;28;20030;-25
2022/10/07 07:45:11;;;;;;;4.53;2.60;;;;;;;23.89;41.16;97621.88;5011828;28;20037;-25
2022/10/07 07:47:36;;;;;;;3.35;2.65;;;;;;;23.88;41.16;97623.09;5011770;28;20041;-25
2022/10/07 07:50:04;;;;;;;2.80;2.45;;;;;;;23.98;41.18;97618.94;5011856;28;20026;-25
2022/10/07 07:52:30;;;;;;;4.15;2.38;;;;;;;23.92;40.95;97629.22;5011692;28;20037;-25
2022/10/07 07:54:57;;;;;;;3.20;2.40;;;;;;;23.90;41.23;97625.41;5011240;28;20025;-25
2022/10/07 07:57:24;;;;;;;2.92;2.10;;;;;;;23.95;40.97;97621.94;5011640;28;20496;-25
2022/10/07 07:59:50;;;;;;;5.32;2.30;;;;;;;23.12;43.21;97619.59;5011717;28;20041;-28
2022/10/07 08:02:15;;;;;;;3.92;2.20;;;;;;;23.46;42.52;97633.91;5011540;28;20375;-28
2022/10/07 08:04:41;;;;;;;4.38;2.35;;;;;;;23.67;41.96;97631.91;5011667;28;20048;-28
2022/10/07 08:07:11;;;;;;;3.67;2.22;;;;;;;23.81;41.53;97633.88;5011506;28;20022;-29
2022/10/07 08:09:40;;;;;;;3.95;2.20;;;;;;;23.84;41.74;97630.13;5011685;28;20041;-29
2022/10/07 08:12:06;;;;;;;3.95;2.65;;;;;;;23.87;41.35;97627.13;5011540;28;20028;-28
2022/10/07 08:14:32;;;;;;;3.58;2.28;;;;;;;23.94;41.26;97623.94;5011446;28;20435;-30
2022/10/07 08:16:58;;;;;;;3.80;2.20;;;;;;;23.96;41.35;97634.53;5009121;28;20037;-28
2022/10/07 08:19:29;;;;;;;2.63;2.10;;;;;;;23.91;41.54;97638.75;5011102;28;20025;-28
2022/10/07 08:21:56;;;;;;;3.22;2.15;;;;;;;23.90;41.62;97636.47;5017555;28;20359;-28
2022/10/07 08:24:24;;;;;;;2.88;2.00;;;;;;;23.93;41.43;97635.50;5037057;28;20048;-28
2022/10/07 08:26:50;;;;;;;2.78;2.10;;;;;;;23.91;41.67;97643.53;5037111;28;20474;-28
2022/10/07 08:29:16;;;;;;;2.53;2.17;;;;;;;23.80;41.81;97630.31;5036910;28;20029;-28
2022/10/07 08:31:42;;;;;;;4.45;2.50;;;;;;;23.94;41.62;97631.50;5037067;28;20104;-28
2022/10/07 08:34:09;;;;;;;3.95;2.03;;;;;;;23.91;41.72;97638.75;5036876;28;20425;-30
2022/10/07 08:36:36;;;;;;;3.55;2.20;;;;;;;23.87;41.85;97632.66;5036761;28;20059;-29
2022/10/07 08:39:03;;;;;;;2.33;1.90;;;;;;;23.91;41.54;97630.44;5036716;28;20095;-28
2022/10/07 08:41:53;;;;;;;2.28;2.00;;;;;;;23.94;41.52;97628.72;5036805;28;20474;-28
2022/10/07 08:44:31;;;;;;;6.57;2.50;;;;;;;23.94;41.74;97623.94;5036565;28;20030;-29
2022/10/07 08:46:56;;;;;;;4.35;2.22;;;;;;;23.92;41.78;97634.75;5036873;28;20592;-29
2022/10/07 08:49:47;;;;;;;4.57;2.45;;;;;;;23.92;41.74;97629.22;5036987;28;20108;-28
2022/10/07 08:52:53;;;;;;;3.60;2.55;;;;;;;23.89;42.15;97626.63;5035936;28;20063;-29
2022/10/07 08:55:38;;;;;;;5.32;2.20;;;;;;;23.88;41.84;97628.66;5036273;28;20366;-28
2022/10/07 08:58:10;;;;;;;3.78;2.20;;;;;;;23.81;42.12;97629.09;5035943;28;20025;-29
2022/10/07 09:00:46;;;;;;;2.80;2.20;;;;;;;23.85;42.14;97631.66;5036157;28;20485;-29
2022/10/07 09:03:18;;;;;;;2.15;1.90;;;;;;;23.78;42.07;97632.06;5036069;28;20033;-28
2022/10/07 09:05:48;;;;;;;3.28;2.00;;;;;;;23.87;42.10;97632.66;5036517;28;20100;-30
2022/10/07 09:08:26;;;;;;;4.07;2.28;;;;;;;23.89;42.06;97629.41;5036500;28;20027;-28
2022/10/07 09:10:54;;;;;;;5.40;2.90;;;;;;;23.88;42.08;97619.56;5036283;28;20029;-29
2022/10/07 09:13:34;;;;;;;3.40;2.40;;;;;;;23.86;42.18;97625.59;5036252;28;20056;-28
2022/10/07 09:16:11;;;;;;;2.83;2.25;;;;;;;23.81;42.20;97631.84;5036402;28;20037;-29
2022/10/07 09:18:41;;;;;;;3.28;2.22;;;;;;;23.80;42.24;97632.34;5036151;28;20363;-28
2022/10/07 09:21:15;;;;;;;2.70;2.38;;;;;;;23.73;42.36;97625.22;5036023;28;20044;-28
2022/10/07 09:23:42;;;;;;;3.22;2.60;;;;;;;23.80;42.24;97616.47;5036104;28;20044;-28
2022/10/07 09:26:12;;;;;;;3.35;2.30;;;;;;;23.80;42.04;97622.03;5035965;28;20021;-28
2022/10/07 09:28:38;;;;;;;3.55;2.10;;;;;;;23.76;42.36;97615.91;5036197;28;20029;-28
2022/10/07 09:31:03;;;;;;;4.00;2.15;;;;;;;23.78;42.23;97616.19;5036004;28;20500;-28
2022/10/07 09:33:29;;;;;;;2.92;2.40;;;;;;;23.25;44.04;97617.25;5034717;28;20100;-29
2022/10/07 09:36:06;;;;;;;2.53;2.20;;;;;;;23.20;43.98;97615.19;5035812;28;20522;-28
2022/10/07 09:38:43;;;;;;;2.60;2.20;;;;;;;23.07;44.47;97623.06;5035596;28;20049;-28
2022/10/07 09:41:22;;;;;;;3.03;2.25;;;;;;;23.27;43.98;97617.53;5035804;28;20354;-30
2022/10/07 09:44:03;;;;;;;3.78;2.42;;;;;;;23.61;42.98;97616.00;5035839;28;20029;-28
2022/10/07 09:46:45;;;;;;;2.95;2.55;;;;;;;23.52;43.28;97623.69;5035590;28;20030;-28
2022/10/07 09:49:30;;;;;;;2.58;2.30;;;;;;;23.52;43.27;97618.91;5035731;28;20056;-28
2022/10/07 09:52:01;;;;;;;4.95;2.33;;;;;;;23.72;42.82;97612.63;5035842;28;20032;-28
2022/10/07 09:54:29;;;;;;;2.42;2.22;;;;;;;23.84;42.76;97616.28;5035387;28;20033;-28
2022/10/07 09:56:57;;;;;;;2.95;2.47;;;;;;;23.78;43.05;97607.88;5035501;28;20108;-28
2022/10/07 09:59:24;;;;;;;3.13;2.30;;;;;;;23.84;42.82;97600.41;5035355;28;20033;-29
2022/10/07 10:01:58;;;;;;;2.50;2.20;;;;;;;23.66;43.57;97606.22;5034088;28;20371;-29
2022/10/07 10:04:36;;;;;;;5.07;2.42;;;;;;;23.51;43.59;97605.53;5034059;28;20366;-28
2022/10/07 10:07:18;;;;;;;3.38;2.40;;;;;;;23.18;44.12;97601.06;5035217;28;20060;-28
2022/10/07 10:10:17;;;;;;;3.47;2.70;;;;;;;23.26;44.08;97596.63;5035206;28;20029;-28
2022/10/07 10:12:48;;;;;;;3.95;2.50;;;;;;;23.35;43.84;97597.78;5035041;28;20025;-29
2022/10/07 10:15:41;;;;;;;3.10;2.15;;;;;;;23.79;42.69;97598.34;5035035;28;20060;-28
2022/10/07 10:18:25;;;;;;;;;;;;;;;23.74;43.15;97598.28;5035504;28;20029;-28
2022/10/07 10:20:50;;;;;;;;;;;;;;;23.85;42.74;97599.16;5035463;28;19913;-30
2022/10/07 10:23:37;;;;;;;3.10;2.30;;;;;;;23.66;43.25;97594.41;5032024;28;20327;-28
2022/10/07 10:26:27;;;;;;;4.03;2.08;;;;;;;23.80;43.01;97590.78;5033702;28;20257;-28
2022/10/07 10:29:11;;;;;;;2.72;2.03;;;;;;;23.75;43.28;97583.91;5035264;28;20022;-29
2022/10/07 10:31:55;;;;;;;2.35;2.13;;;;;;;23.78;42.79;97585.72;5035022;28;20032;-28
2022/10/07 10:34:30;;;;;;;3.65;2.10;;;;;;;23.84;42.89;97586.56;5034634;28;20033;-28
2022/10/07 10:37:09;;;;;;;4.07;2.20;;;;;;;23.73;43.30;97580.91;5034625;28;20025;-28
2022/10/07 10:39:56;;;;;;;3.30;2.30;;;;;;;23.84;42.77;97578.25;5034501;28;20042;-28
2022/10/07 10:42:47;;;;;;;3.10;2.45;;;;;;;23.78;43.35;97574.66;5034669;28;20036;-28
2022/10/07 10:45:36;;;;;;;4.03;2.15;;;;;;;23.76;43.06;97571.59;5034390;28;20032;-29
2022/10/07 10:48:29;;;;;;;3.42;2.35;;;;;;;23.75;43.22;97567.31;5034671;28;20108;-28
2022/10/07 10:51:09;;;;;;;2.63;2.20;;;;;;;23.79;43.32;97576.16;5034557;28;20033;-29
2022/10/07 10:53:50;;;;;;;2.95;2.25;;;;;;;23.61;43.50;97574.44;5034470;28;20075;-29
2022/10/07 10:56:40;;;;;;;4.00;2.20;;;;;;;23.71;43.46;97568.78;5034494;28;20559;-29
2022/10/07 10:59:14;;;;;;;2.58;2.30;;;;;;;23.81;43.39;97567.38;5034188;28;20061;-28
2022/10/07 11:01:43;;;;;;;3.58;2.58;;;;;;;23.62;44.14;97580.75;5034454;28;20055;-28
2022/10/07 11:04:20;;;;;;;3.85;2.40;;;;;;;23.71;43.72;97569.53;5034423;28;20017;-28
2022/10/07 11:06:52;;;;;;;2.75;2.35;;;;;;;23.63;44.23;97571.97;5034223;28;20057;-28
2022/10/07 11:09:31;;;;;;;4.43;2.92;;;;;;;23.41;45.01;97568.13;5032979;28;20036;-28
2022/10/07 11:12:02;;;;;;;4.65;3.10;;;;;;;23.68;44.39;97575.28;5033953;28;20029;-28
2022/10/07 11:14:30;;;;;;;3.78;2.95;;;;;;;23.51;44.63;97566.78;5033910;28;20022;-28
2022/10/07 11:17:02;;;;;;;3.75;2.45;;;;;;;23.69;44.17;97560.97;5034011;28;20021;-28
2022/10/07 11:19:33;;;;;;;3.10;2.43;;;;;;;23.68;44.42;97555.91;5034043;28;20028;-28
2022/10/07 11:22:00;;;;;;;2.80;2.55;;;;;;;23.66;44.30;97556.38;5034242;28;20033;-28
2022/10/07 11:24:39;;;;;;;2.90;2.47;;;;;;;23.77;44.00;97559.28;5033890;28;20030;-28
2022/10/07 11:27:16;;;;;;;2.75;2.40;;;;;;;23.81;43.96;97557.06;5034171;28;20068;-28
2022/10/07 11:30:07;;;;;;;4.50;2.80;;;;;;;23.77;43.91;97550.97;5033837;28;20079;-28
2022/10/07 11:32:43;;;;;;;4.78;2.92;;;;;;;23.79;43.83;97540.16;5033701;28;20381;-29
2022/10/07 11:35:21;;;;;;;5.82;2.53;;;;;;;23.77;44.11;97541.91;5033928;28;20429;-29
2022/10/07 11:38:04;;;;;;;3.08;2.42;;;;;;;23.85;44.20;97538.22;5033611;28;20100;-29
2022/10/07 11:40:32;;;;;;;4.53;2.83;;;;;;;23.57;44.68;97526.09;5033703;28;20041;-28
2022/10/07 11:43:07;;;;;;;3.13;2.55;;;;;;;23.78;44.56;97535.09;5033617;28;20025;-28
2022/10/07 11:45:42;;;;;;;4.03;2.45;;;;;;;23.68;44.62;97528.22;5033529;28;20025;-28
2022/10/07 11:48:13;;;;;;;3.53;3.03;;;;;;;23.73;45.15;97525.50;5033692;28;20049;-29
2022/10/07 11:51:00;;;;;;;5.35;2.95;;;;;;;23.86;44.07;97520.31;5033506;28;20056;-29
2022/10/07 11:53:27;;;;;;;3.72;2.80;;;;;;;23.90;43.94;97511.81;5033515;28;20493;-28
2022/10/07 11:56:20;;;;;;;2.92;2.55;;;;;;;23.94;44.03;97509.59;5032943;28;20025;-28